West Park, Florida
Current Conditions -  °F | °C
As of 6:53 AM on Monday 26 Jan 2015 (Local Time) from KHWO Reporting Station
Clear Clear  
Wind Chill: 56°   Ceiling: Unl
Heat Index: 56°   Visibility: 10mi
Dew Point: 51°   Wind: 7mph
Humidity: 84%   Direction: 190°S
Pressure: 29.96"   Gusts: NA
Location:  25.9895°N, 80.2144°W
Report Text: KHWO 261153Z 19006KT 10SM CLR 13/11 A2996 RMK AO2 SLP144 T01330106 10133 20117 55005
Loading
Personal Weather Stations






























Interactive Weather Map New forecast layout! Learn more

10-Day Weather Forecast

Advertisements
Track Severe Weather on mobile